Etusivu
METAR-TAF:

METAR-TAF

Lentoasemat :

Vidsel, Ruotsi

Leveyspiiri: 65-52N, Pituuspiiri: 020-08E, korkeus merenpinnasta: 180 m

Tämänhetkinen sää

Tämä raportti tehtiin 37 minuuttia sitten, kello 09.20 UTC
Tuuli 2 kn idästä/koillisesta
Lämpötila -5°C
Kosteus 100%
Ilmanpaine 1018 hPa
Näkyvyys 10 km tai enemmän
(heikkoa) lumijyväsiä

METAR: ESPE 170920Z AUTO 06002KT 9999 -SG OVC005/// M05/M05 Q1018

Aika: 10:57 (09:57 UTC)


TAF: puuttuu

Säähavainnot ja -ennusteet yli 4000 lentoasemalta (METAR- ja TAF-raportit).

Käytössä olevat sääasemat on merkitty karttaan keltaisilla ja punaisilla pisteillä.

Aseta hiiri pisteen päälle nähdäksesi sääaseman nimen.

Klikkaa sitten nähdäksesi säähavainnot ja -ennusteet.

Kartan vaihtaminen: klikkaa mustalla rastilla varustettuja vihreitä pisteitä, niin voit zoomata sisään; viivalla varustettua vihreää pistettä, niin voit zoomata ulos tai vihreitä nuolia, niin pääset viereisille kartoille.


METAR-TAF: